createdAt,value
2019-03-06T00:01:24.174Z,0.07
2019-03-06T00:03:52.371Z,0.20
2019-03-06T00:06:20.548Z,0.13
2019-03-06T00:08:48.665Z,0.26
2019-03-06T00:11:17.060Z,0.07
2019-03-06T00:13:45.248Z,0.04
2019-03-06T00:16:13.468Z,0.03
2019-03-06T00:18:41.578Z,-0.06
2019-03-06T00:21:10.042Z,-0.14
2019-03-06T00:23:38.392Z,-0.17
2019-03-06T00:26:06.914Z,0.00
2019-03-06T00:28:35.182Z,0.10
2019-03-06T00:31:03.381Z,-0.11
2019-03-06T00:33:31.586Z,-0.01
2019-03-06T00:36:00.410Z,0.05
2019-03-06T00:38:28.697Z,-0.08
2019-03-06T00:41:15.906Z,0.12
2019-03-06T00:43:44.111Z,0.39
2019-03-06T00:46:12.433Z,0.14
2019-03-06T00:48:40.751Z,0.03
2019-03-06T00:51:08.985Z,-0.27
2019-03-06T00:53:37.161Z,-0.22
2019-03-06T00:56:05.394Z,-0.22
2019-03-06T00:58:33.668Z,-0.29
2019-03-06T01:01:02.097Z,-0.48
2019-03-06T01:03:30.319Z,-0.57
2019-03-06T01:05:58.602Z,-0.64
2019-03-06T01:08:26.868Z,-0.62
2019-03-06T01:10:55.071Z,-0.51
2019-03-06T01:13:23.186Z,-0.19
2019-03-06T01:15:51.424Z,-0.45
2019-03-06T01:18:19.619Z,-0.52
2019-03-06T01:20:47.753Z,-0.68
2019-03-06T01:23:16.095Z,-0.59
2019-03-06T01:25:44.269Z,-0.68
2019-03-06T01:28:12.462Z,-0.75
2019-03-06T01:30:40.608Z,-0.71
2019-03-06T01:33:15.564Z,-0.29
2019-03-06T01:36:11.756Z,-0.20
2019-03-06T01:38:51.139Z,-0.31
2019-03-06T01:41:28.735Z,-0.36
2019-03-06T01:44:04.433Z,-0.53
2019-03-06T01:46:32.779Z,-0.57
2019-03-06T01:49:00.937Z,-0.58
2019-03-06T01:51:29.136Z,-0.64
2019-03-06T01:53:57.309Z,-0.58
2019-03-06T01:56:26.121Z,-0.44
2019-03-06T01:58:54.364Z,-0.56
2019-03-06T02:01:22.711Z,-0.54
2019-03-06T02:03:50.904Z,-0.51
2019-03-06T02:06:19.543Z,-0.52
2019-03-06T02:08:47.820Z,-0.50
2019-03-06T02:11:16.005Z,-0.45
2019-03-06T02:13:44.327Z,-0.46
2019-03-06T02:16:12.454Z,-0.45
2019-03-06T02:18:41.193Z,-0.43
2019-03-06T02:21:09.576Z,-0.39
2019-03-06T02:23:37.704Z,-0.44
2019-03-06T02:26:05.890Z,-0.44
2019-03-06T02:28:34.060Z,-0.39
2019-03-06T02:31:02.478Z,-0.29
2019-03-06T02:33:30.827Z,-0.25
2019-03-06T02:35:58.949Z,-0.26
2019-03-06T02:38:27.149Z,-0.16
2019-03-06T02:40:55.294Z,-0.19
2019-03-06T02:43:23.739Z,-0.16
2019-03-06T02:45:52.308Z,-0.15
2019-03-06T02:48:20.479Z,-0.15
2019-03-06T02:50:48.788Z,-0.07
2019-03-06T02:53:16.977Z,0.15
2019-03-06T02:55:45.665Z,0.35
2019-03-06T02:58:35.723Z,0.67
2019-03-06T03:01:41.536Z,0.97
2019-03-06T03:04:18.047Z,1.16
2019-03-06T03:06:50.052Z,1.06
2019-03-06T03:09:19.283Z,1.15
2019-03-06T03:11:47.805Z,1.27
2019-03-06T03:14:16.003Z,1.47
2019-03-06T03:16:44.161Z,1.42
2019-03-06T03:19:12.253Z,1.49
2019-03-06T03:21:40.391Z,1.57
2019-03-06T03:24:08.534Z,1.12
2019-03-06T03:26:36.921Z,1.48
2019-03-06T03:29:05.138Z,1.45
2019-03-06T03:31:33.323Z,1.46
2019-03-06T03:34:01.584Z,1.66
2019-03-06T03:36:29.675Z,1.85
2019-03-06T03:38:57.885Z,1.58
2019-03-06T03:41:26.072Z,1.45
2019-03-06T03:43:55.023Z,2.24
2019-03-06T03:46:23.230Z,2.18
2019-03-06T03:48:51.421Z,2.00
2019-03-06T03:51:19.527Z,2.29
2019-03-06T03:53:47.898Z,1.95
2019-03-06T03:56:16.095Z,2.25
2019-03-06T03:58:44.326Z,2.42
2019-03-06T04:01:12.475Z,2.67
2019-03-06T04:03:40.668Z,2.28
2019-03-06T04:06:08.968Z,2.52
2019-03-06T04:08:37.083Z,2.57
2019-03-06T04:11:05.347Z,2.70
2019-03-06T04:13:33.749Z,2.70
2019-03-06T04:16:01.895Z,2.58
2019-03-06T04:18:30.120Z,2.35
2019-03-06T04:20:58.297Z,2.71
2019-03-06T04:23:26.478Z,2.54
2019-03-06T04:25:55.135Z,2.78
2019-03-06T04:28:23.342Z,2.60
2019-03-06T04:30:53.516Z,2.32
2019-03-06T04:33:21.736Z,2.79
2019-03-06T04:35:49.948Z,2.73
2019-03-06T04:38:18.177Z,3.10
2019-03-06T04:40:46.351Z,2.86
2019-03-06T04:43:14.525Z,2.88
2019-03-06T04:45:42.717Z,2.66
2019-03-06T04:48:11.233Z,3.05
2019-03-06T04:50:39.465Z,2.84
2019-03-06T04:53:07.685Z,2.49
2019-03-06T04:55:35.949Z,2.93
2019-03-06T04:58:04.168Z,2.88
2019-03-06T05:00:32.419Z,2.89
2019-03-06T05:03:01.356Z,3.03
2019-03-06T05:05:29.499Z,3.09
2019-03-06T05:07:57.771Z,2.91
2019-03-06T05:10:25.898Z,2.80
2019-03-06T05:12:54.126Z,3.02
2019-03-06T05:15:22.264Z,3.25
2019-03-06T05:20:33.698Z,3.06
2019-03-06T05:23:01.910Z,3.09
2019-03-06T05:25:30.358Z,3.12
2019-03-06T05:27:58.643Z,3.20
2019-03-06T05:30:28.772Z,3.19
2019-03-06T05:32:58.191Z,3.29
2019-03-06T05:35:54.119Z,3.19
2019-03-06T05:38:46.950Z,3.23
2019-03-06T05:41:15.263Z,3.34
2019-03-06T05:43:43.437Z,3.37
2019-03-06T05:46:11.647Z,3.31
2019-03-06T05:48:41.345Z,3.34
2019-03-06T05:51:09.543Z,3.37
2019-03-06T05:53:38.099Z,3.43
2019-03-06T05:56:06.253Z,3.50
2019-03-06T05:58:34.505Z,3.29
2019-03-06T06:01:02.643Z,3.41
2019-03-06T06:03:30.756Z,3.53
2019-03-06T06:05:58.966Z,3.39
2019-03-06T06:08:27.435Z,3.58
2019-03-06T06:10:55.697Z,3.55
2019-03-06T06:13:23.880Z,3.52
2019-03-06T06:15:52.268Z,3.45
2019-03-06T06:18:20.455Z,3.58
2019-03-06T06:20:51.394Z,3.69
2019-03-06T06:23:38.486Z,3.51
2019-03-06T06:26:06.666Z,3.47
2019-03-06T06:28:35.048Z,3.72
2019-03-06T06:31:03.149Z,3.72
2019-03-06T06:33:31.370Z,3.83
2019-03-06T06:35:59.585Z,3.76
2019-03-06T06:38:27.782Z,3.94
2019-03-06T06:40:56.003Z,3.90
2019-03-06T06:43:24.110Z,4.02
2019-03-06T06:45:52.364Z,4.06
2019-03-06T06:48:22.143Z,4.12
2019-03-06T06:51:01.491Z,4.18
2019-03-06T06:54:00.780Z,4.10
2019-03-06T06:57:04.942Z,4.29
2019-03-06T07:00:20.435Z,4.23
2019-03-06T07:03:26.207Z,4.33
2019-03-06T07:06:05.571Z,4.41
2019-03-06T07:08:55.523Z,4.52
2019-03-06T07:11:32.334Z,4.64
2019-03-06T07:14:34.759Z,4.67
2019-03-06T07:17:22.102Z,4.49
2019-03-06T07:20:24.529Z,4.80
2019-03-06T07:23:16.178Z,4.62
2019-03-06T07:26:09.108Z,4.83
2019-03-06T07:28:56.360Z,4.91
2019-03-06T07:31:40.774Z,5.04
2019-03-06T07:34:46.122Z,5.11
2019-03-06T07:37:28.448Z,5.00
2019-03-06T07:39:57.822Z,5.03
2019-03-06T07:42:44.967Z,5.14
2019-03-06T07:45:59.005Z,5.24
2019-03-06T07:48:40.538Z,5.28
2019-03-06T07:51:27.654Z,5.13
2019-03-06T07:54:14.272Z,5.34
2019-03-06T07:56:46.116Z,5.45
2019-03-06T07:59:14.291Z,5.59
2019-03-06T08:02:03.555Z,5.62
2019-03-06T08:04:31.674Z,5.70
2019-03-06T08:07:13.951Z,5.80
2019-03-06T08:09:42.116Z,5.76
2019-03-06T08:12:34.333Z,5.95
2019-03-06T08:15:20.021Z,6.09
2019-03-06T08:18:13.313Z,6.21
2019-03-06T08:21:09.389Z,6.27
2019-03-06T08:23:56.695Z,6.14
2019-03-06T08:26:24.987Z,6.38
2019-03-06T08:28:53.365Z,6.37
2019-03-06T08:31:41.780Z,6.49
2019-03-06T08:34:10.134Z,6.59
2019-03-06T08:36:38.503Z,6.60
2019-03-06T08:39:22.916Z,6.58
2019-03-06T08:41:51.346Z,6.71
2019-03-06T08:44:19.568Z,6.84
2019-03-06T08:46:54.344Z,6.83
2019-03-06T08:49:41.481Z,6.84
2019-03-06T08:52:27.211Z,6.89
2019-03-06T08:55:08.682Z,6.98
2019-03-06T08:58:12.009Z,7.09
2019-03-06T09:00:58.358Z,7.24
2019-03-06T09:06:45.908Z,7.36
2019-03-06T09:09:32.927Z,7.52
2019-03-06T09:12:35.048Z,7.61
2019-03-06T09:15:23.792Z,7.78
2019-03-06T09:18:10.975Z,7.86
2019-03-06T09:20:57.066Z,7.85
2019-03-06T09:23:44.223Z,8.00
2019-03-06T09:26:31.351Z,8.14
2019-03-06T09:29:05.050Z,8.26
2019-03-06T09:31:52.141Z,8.50
2019-03-06T09:34:29.303Z,8.66
2019-03-06T09:37:22.735Z,8.69
2019-03-06T09:40:10.073Z,8.77
2019-03-06T09:42:57.500Z,8.87
2019-03-06T09:45:43.910Z,8.79
2019-03-06T09:48:29.021Z,8.94
2019-03-06T09:51:16.139Z,8.99
2019-03-06T09:54:03.256Z,9.09
2019-03-06T09:56:54.778Z,9.12
2019-03-06T09:59:36.918Z,9.21
2019-03-06T10:02:24.420Z,9.32
2019-03-06T10:05:04.342Z,9.35
2019-03-06T10:07:51.700Z,9.36
2019-03-06T10:10:46.142Z,9.56
2019-03-06T10:13:34.020Z,9.78
2019-03-06T10:16:11.514Z,9.81
2019-03-06T10:18:58.705Z,9.77
2019-03-06T10:21:26.947Z,9.81
2019-03-06T10:23:55.749Z,9.91
2019-03-06T10:26:24.140Z,10.09
2019-03-06T10:28:52.579Z,10.10
2019-03-06T10:31:20.710Z,10.13
2019-03-06T10:33:48.895Z,10.34
2019-03-06T10:36:17.136Z,10.26
2019-03-06T10:38:45.546Z,10.50
2019-03-06T10:41:13.986Z,10.50
2019-03-06T10:43:48.913Z,10.60
2019-03-06T10:46:12.167Z,10.74
2019-03-06T10:48:40.361Z,10.82
2019-03-06T10:51:09.129Z,10.78
2019-03-06T10:53:41.229Z,10.94
2019-03-06T10:56:07.415Z,10.96
2019-03-06T10:58:35.683Z,11.21
2019-03-06T11:01:06.519Z,11.22
2019-03-06T11:03:45.429Z,11.13
2019-03-06T11:06:14.759Z,11.17
2019-03-06T11:08:43.337Z,11.38
2019-03-06T11:11:11.808Z,11.45
2019-03-06T11:13:40.117Z,11.47
2019-03-06T11:16:10.561Z,11.31
2019-03-06T11:18:38.080Z,11.62
2019-03-06T11:21:08.770Z,11.64
2019-03-06T11:23:37.229Z,11.75
2019-03-06T11:26:08.231Z,11.66
2019-03-06T11:28:37.227Z,11.93
2019-03-06T11:31:06.636Z,11.96
2019-03-06T11:33:36.901Z,12.04
2019-03-06T11:36:05.814Z,12.20
2019-03-06T11:38:34.236Z,12.59
2019-03-06T11:41:02.816Z,12.46
2019-03-06T11:43:31.884Z,12.64
2019-03-06T11:46:00.423Z,12.88
2019-03-06T11:48:28.832Z,12.74
2019-03-06T11:50:57.051Z,13.20
2019-03-06T11:53:25.407Z,13.27
2019-03-06T11:55:53.661Z,13.46
2019-03-06T11:58:22.025Z,13.78
2019-03-06T12:00:50.703Z,13.99
2019-03-06T12:03:20.915Z,14.07
2019-03-06T12:05:48.795Z,13.96
2019-03-06T12:08:17.666Z,14.11
2019-03-06T12:10:46.023Z,14.33
2019-03-06T12:13:15.530Z,14.27
2019-03-06T12:15:46.164Z,13.57
2019-03-06T12:18:15.028Z,14.33
2019-03-06T12:23:10.865Z,14.10
2019-03-06T12:25:40.306Z,13.72
2019-03-06T12:28:10.724Z,14.02
2019-03-06T12:30:39.896Z,14.32
2019-03-06T12:33:08.337Z,14.31
2019-03-06T12:35:36.804Z,14.51
2019-03-06T12:38:05.186Z,14.43
2019-03-06T12:40:34.688Z,14.20
2019-03-06T12:43:03.009Z,14.12
2019-03-06T12:45:31.194Z,13.92
2019-03-06T12:48:00.936Z,14.21
2019-03-06T12:50:30.374Z,14.31
2019-03-06T12:52:58.977Z,14.49
2019-03-06T12:55:27.835Z,14.56
2019-03-06T12:57:59.360Z,14.46
2019-03-06T13:00:26.315Z,14.11
2019-03-06T13:02:54.956Z,14.38
2019-03-06T13:05:24.410Z,14.27
2019-03-06T13:07:52.891Z,14.13
2019-03-06T13:10:21.377Z,14.33
2019-03-06T13:12:50.140Z,14.25
2019-03-06T13:15:21.165Z,13.63
2019-03-06T13:17:49.895Z,13.37
2019-03-06T13:20:18.505Z,13.67
2019-03-06T13:22:46.669Z,13.25
2019-03-06T13:25:17.297Z,13.37
2019-03-06T13:27:48.061Z,13.36
2019-03-06T13:30:15.881Z,13.89
2019-03-06T13:32:53.987Z,14.09
2019-03-06T13:35:22.317Z,13.98
2019-03-06T13:37:50.535Z,14.05
2019-03-06T13:40:19.011Z,13.88
2019-03-06T13:42:47.399Z,14.23
2019-03-06T13:45:16.292Z,13.98
2019-03-06T13:47:44.487Z,13.26
2019-03-06T13:50:13.112Z,14.10
2019-03-06T13:52:41.471Z,14.17
2019-03-06T13:55:09.872Z,14.17
2019-03-06T13:57:37.988Z,14.20
2019-03-06T14:00:08.293Z,14.39
2019-03-06T14:02:37.237Z,14.07
2019-03-06T14:05:06.276Z,14.04
2019-03-06T14:07:35.036Z,14.04
2019-03-06T14:10:03.762Z,13.96
2019-03-06T14:12:31.975Z,14.16
2019-03-06T14:15:00.548Z,13.96
2019-03-06T14:17:28.946Z,14.21
2019-03-06T14:19:57.173Z,14.38
2019-03-06T14:22:25.398Z,14.20
2019-03-06T14:24:53.586Z,14.02
2019-03-06T14:27:21.873Z,14.07
2019-03-06T14:29:51.150Z,14.11
2019-03-06T14:32:20.178Z,13.69
2019-03-06T14:34:48.439Z,13.48
2019-03-06T14:37:16.781Z,13.37
2019-03-06T14:39:45.061Z,13.35
2019-03-06T14:42:13.285Z,13.12
2019-03-06T14:44:41.862Z,13.10
2019-03-06T14:47:10.943Z,12.90
2019-03-06T14:49:39.118Z,12.95
2019-03-06T14:52:07.776Z,12.95
2019-03-06T14:54:36.292Z,12.99
2019-03-06T14:57:04.517Z,13.08
2019-03-06T14:59:32.768Z,13.21
2019-03-06T15:02:01.944Z,13.02
2019-03-06T15:04:30.410Z,13.08
2019-03-06T15:06:58.837Z,13.37
2019-03-06T15:09:28.656Z,13.28
2019-03-06T15:11:57.180Z,13.41
2019-03-06T15:14:25.622Z,13.35
2019-03-06T15:16:54.066Z,13.07
2019-03-06T15:19:22.984Z,13.17
2019-03-06T15:22:10.152Z,13.22
2019-03-06T15:24:41.529Z,13.23
2019-03-06T15:27:08.760Z,13.13
2019-03-06T15:29:37.408Z,13.06
2019-03-06T15:32:05.854Z,13.06
2019-03-06T15:34:34.747Z,12.75
2019-03-06T15:37:02.982Z,12.84
2019-03-06T15:39:42.563Z,12.89
2019-03-06T15:42:09.094Z,12.67
2019-03-06T15:44:37.518Z,12.59
2019-03-06T15:47:05.688Z,12.72
2019-03-06T15:49:33.918Z,12.82
2019-03-06T15:52:02.310Z,12.60
2019-03-06T15:54:30.688Z,12.44
2019-03-06T15:56:58.974Z,12.52
2019-03-06T15:59:27.354Z,12.32
2019-03-06T16:01:55.989Z,12.58
2019-03-06T16:04:24.541Z,12.37
2019-03-06T16:06:54.331Z,12.37
2019-03-06T16:09:23.660Z,12.55
2019-03-06T16:11:53.322Z,12.31
2019-03-06T16:14:22.633Z,12.16
2019-03-06T16:17:11.223Z,12.23
2019-03-06T16:19:39.804Z,12.25
2019-03-06T16:22:08.132Z,12.12
2019-03-06T16:24:37.647Z,12.16
2019-03-06T16:27:07.514Z,12.31
2019-03-06T16:29:35.877Z,12.24
2019-03-06T16:32:04.739Z,12.21
2019-03-06T16:34:33.235Z,12.17
2019-03-06T16:37:02.422Z,12.20
2019-03-06T16:39:30.989Z,12.15
2019-03-06T16:41:59.667Z,11.95
2019-03-06T16:44:28.485Z,12.05
2019-03-06T16:47:06.192Z,11.93
2019-03-06T16:49:27.356Z,11.94
2019-03-06T16:51:56.367Z,12.01
2019-03-06T16:54:26.578Z,11.91
2019-03-06T16:56:55.641Z,11.77
2019-03-06T16:59:24.666Z,11.79
2019-03-06T17:01:53.352Z,11.76
2019-03-06T17:04:21.754Z,11.66
2019-03-06T17:06:50.955Z,11.71
2019-03-06T17:09:21.064Z,11.50
2019-03-06T17:11:50.097Z,11.46
2019-03-06T17:14:19.657Z,11.31
2019-03-06T17:16:49.166Z,11.15
2019-03-06T17:19:18.346Z,11.27
2019-03-06T17:21:47.060Z,11.29
2019-03-06T17:24:15.955Z,11.09
2019-03-06T17:26:45.135Z,11.05
2019-03-06T17:29:15.492Z,10.82
2019-03-06T17:31:44.994Z,10.90
2019-03-06T17:34:13.861Z,10.90
2019-03-06T17:36:43.393Z,10.82
2019-03-06T17:39:13.760Z,10.88
2019-03-06T17:41:42.869Z,10.53
2019-03-06T17:44:12.775Z,10.44
2019-03-06T17:46:43.675Z,10.62
2019-03-06T17:49:13.235Z,10.50
2019-03-06T17:51:42.845Z,10.51
2019-03-06T17:54:13.322Z,10.59
2019-03-06T17:56:41.662Z,10.44
2019-03-06T17:59:11.598Z,10.60
2019-03-06T18:01:41.209Z,10.37
2019-03-06T18:04:18.272Z,10.41
2019-03-06T18:06:48.081Z,10.39
2019-03-06T18:09:17.695Z,10.47
2019-03-06T18:11:47.682Z,10.16
2019-03-06T18:14:17.199Z,10.28
2019-03-06T18:16:45.902Z,10.26
2019-03-06T18:19:15.086Z,10.18
2019-03-06T18:21:44.473Z,9.95
2019-03-06T18:24:13.655Z,10.19
2019-03-06T18:26:43.437Z,10.03
2019-03-06T18:29:13.207Z,9.93
2019-03-06T18:31:42.404Z,10.02
2019-03-06T18:34:11.547Z,10.12
2019-03-06T18:36:40.537Z,10.05
2019-03-06T18:39:28.813Z,9.99
2019-03-06T18:42:17.522Z,10.04
2019-03-06T18:44:47.011Z,10.07
2019-03-06T18:47:17.180Z,10.00
2019-03-06T18:49:46.141Z,9.96
2019-03-06T18:52:15.022Z,10.07
2019-03-06T18:54:44.487Z,9.88
2019-03-06T18:57:13.741Z,9.88
2019-03-06T18:59:42.803Z,9.94
2019-03-06T19:02:12.313Z,10.00
2019-03-06T19:04:41.836Z,9.90
2019-03-06T19:07:11.656Z,9.99
2019-03-06T19:09:41.077Z,9.87
2019-03-06T19:12:10.914Z,9.88
2019-03-06T19:14:47.808Z,9.83
2019-03-06T19:17:20.121Z,9.70
2019-03-06T19:19:49.326Z,9.82
2019-03-06T19:22:18.304Z,9.86
2019-03-06T19:24:49.298Z,9.95
2019-03-06T19:27:18.865Z,9.83
2019-03-06T19:29:48.159Z,9.97
2019-03-06T19:32:17.014Z,9.95
2019-03-06T19:34:46.584Z,9.85
2019-03-06T19:37:18.168Z,9.96
2019-03-06T19:39:47.098Z,9.88
2019-03-06T19:42:16.819Z,9.79
2019-03-06T19:44:46.266Z,9.73
2019-03-06T19:47:15.037Z,9.85
2019-03-06T19:49:43.696Z,9.89
2019-03-06T19:52:12.512Z,9.78
2019-03-06T19:54:41.958Z,9.92
2019-03-06T19:57:11.321Z,9.92
2019-03-06T19:59:40.503Z,9.87
2019-03-06T20:02:09.929Z,9.91
2019-03-06T20:04:40.123Z,10.01
2019-03-06T20:07:09.468Z,9.92
2019-03-06T20:09:38.940Z,9.91
2019-03-06T20:12:09.660Z,9.91
2019-03-06T20:14:39.504Z,9.89
2019-03-06T20:17:08.596Z,9.91
2019-03-06T20:19:39.227Z,9.88
2019-03-06T20:22:09.011Z,9.98
2019-03-06T20:25:17.469Z,10.01
2019-03-06T20:27:47.055Z,9.91
2019-03-06T20:30:20.115Z,9.91
2019-03-06T20:32:50.058Z,9.83
2019-03-06T20:35:23.665Z,9.88
2019-03-06T20:37:53.512Z,9.84
2019-03-06T20:40:23.172Z,9.79
2019-03-06T20:42:53.468Z,9.76
2019-03-06T20:45:23.225Z,9.81
2019-03-06T20:47:52.064Z,9.91
2019-03-06T20:50:21.451Z,9.91
2019-03-06T20:52:51.057Z,9.91
2019-03-06T20:55:20.353Z,9.82
2019-03-06T20:57:50.161Z,9.84
2019-03-06T21:00:21.763Z,9.81
2019-03-06T21:02:51.398Z,9.72
2019-03-06T21:05:21.130Z,9.64
2019-03-06T21:07:50.537Z,9.68
2019-03-06T21:10:19.444Z,9.73
2019-03-06T21:12:48.476Z,9.68
2019-03-06T21:15:18.305Z,9.71
2019-03-06T21:17:48.162Z,9.63
2019-03-06T21:20:18.321Z,9.69
2019-03-06T21:22:47.386Z,9.65
2019-03-06T21:25:17.995Z,9.63
2019-03-06T21:27:47.152Z,9.52
2019-03-06T21:30:21.436Z,9.57
2019-03-06T21:32:50.199Z,9.59
2019-03-06T21:35:19.378Z,9.49
2019-03-06T21:37:48.641Z,9.49
2019-03-06T21:40:18.299Z,9.49
2019-03-06T21:42:47.629Z,9.50
2019-03-06T21:45:16.633Z,9.45
2019-03-06T21:47:46.038Z,9.49
2019-03-06T21:50:16.648Z,9.45
2019-03-06T21:52:46.576Z,9.46
2019-03-06T21:55:16.039Z,9.41
2019-03-06T21:57:45.735Z,9.34
2019-03-06T22:00:20.660Z,9.36
2019-03-06T22:02:49.943Z,9.35
2019-03-06T22:05:18.858Z,9.33
2019-03-06T22:07:47.433Z,9.27
2019-03-06T22:10:16.571Z,9.28
2019-03-06T22:12:45.588Z,9.21
2019-03-06T22:15:14.960Z,9.20
2019-03-06T22:17:43.545Z,9.12
2019-03-06T22:20:12.217Z,9.29
2019-03-06T22:22:40.679Z,9.31
2019-03-06T22:25:09.686Z,9.19
2019-03-06T22:27:37.999Z,9.21
2019-03-06T22:30:07.970Z,9.18
2019-03-06T22:32:36.446Z,9.23
2019-03-06T22:35:05.063Z,9.28
2019-03-06T22:37:33.582Z,9.21
2019-03-06T22:40:01.924Z,9.18
2019-03-06T22:42:30.482Z,9.28
2019-03-06T22:44:58.920Z,9.20
2019-03-06T22:47:27.072Z,9.27
2019-03-06T22:49:55.314Z,9.24
2019-03-06T22:52:23.472Z,9.23
2019-03-06T22:54:52.004Z,9.21
2019-03-06T22:57:20.274Z,9.09
2019-03-06T22:59:48.668Z,9.03
2019-03-06T23:02:18.314Z,9.03
2019-03-06T23:04:46.766Z,9.25
2019-03-06T23:07:14.948Z,9.12
2019-03-06T23:09:43.222Z,9.28
2019-03-06T23:12:11.490Z,9.28
2019-03-06T23:14:39.985Z,9.17
2019-03-06T23:17:08.166Z,9.19
2019-03-06T23:19:36.620Z,9.10
2019-03-06T23:22:04.821Z,9.17
2019-03-06T23:24:33.554Z,9.21
2019-03-06T23:27:01.995Z,9.17
2019-03-06T23:29:30.367Z,9.17
2019-03-06T23:31:58.713Z,9.23
2019-03-06T23:34:27.329Z,9.32
2019-03-06T23:36:55.601Z,9.30
2019-03-06T23:39:23.869Z,9.37
2019-03-06T23:41:52.084Z,9.39
2019-03-06T23:44:20.243Z,9.33
2019-03-06T23:46:48.401Z,9.38
2019-03-06T23:49:16.840Z,9.34
2019-03-06T23:51:57.268Z,9.41
2019-03-06T23:54:25.746Z,9.43
2019-03-06T23:56:53.917Z,9.48
2019-03-06T23:59:22.304Z,9.44
